グアム の空港の天気 - METARとTAF

グアム国際空港 ( PGUM / GUM ) - グアム ハガニア
飛行場実況気象(Metar)
観測時間10/21 01:54 ChST (10/20 15:54 UTC)
風向・風速北東 2m/s
視程10km以上
天気現象
少しの雲 雲底高度 700m
少しの雲 雲底高度 910m
少しの雲 雲底高度 1520m
気温26.7℃
湿度97%
気圧1008.4hPa
METARPGUM 201554Z 05004KT 10SM FEW023 FEW030 FEW050 27/26 A2980 RMK AO2 SLP084 T02670261
過去の天気等 Google飛行場航空写真 Wunderground天気予報

過去48時間のMETAR

飛行場予報(TAF)
発表時間: 10/20 21:33 ChST (10/20 11:33 UTC)
予報対象時間: 20日22時 ChST ~ 22日4時 ChST
風向・風速北北東 3m/s
視程10km以上
天気現象周辺でしゅう雨
少しの雲 雲底高度 550m
全天の4割程度の雲 雲底高度 1520m
PGUM 201133Z 2012/2118 03006KT P6SM VCSH FEW018 SCT050